sensor_id;sensor_type;location;lat;lon;timestamp;temperature;humidity
480;DHT22;226;48.606;9.096;2023-07-31T13:00:53;23.40;36.40
480;DHT22;226;48.606;9.096;2023-07-31T13:03:21;23.80;37.80
480;DHT22;226;48.606;9.096;2023-07-31T13:05:50;24.60;40.60
480;DHT22;226;48.606;9.096;2023-07-31T13:08:20;24.10;38.40
480;DHT22;226;48.606;9.096;2023-07-31T13:10:49;24.60;39.30
480;DHT22;226;48.606;9.096;2023-07-31T13:53:38;23.00;44.10
480;DHT22;226;48.606;9.096;2023-07-31T13:58:36;23.00;42.40
480;DHT22;226;48.606;9.096;2023-07-31T14:01:04;23.00;40.30
480;DHT22;226;48.606;9.096;2023-07-31T14:03:35;23.10;38.90
480;DHT22;226;48.606;9.096;2023-07-31T14:06:05;23.00;37.40
480;DHT22;226;48.606;9.096;2023-07-31T14:08:33;23.30;40.60
480;DHT22;226;48.606;9.096;2023-07-31T14:11:01;23.40;38.90
480;DHT22;226;48.606;9.096;2023-07-31T14:13:31;23.30;37.30
480;DHT22;226;48.606;9.096;2023-07-31T14:15:59;23.20;41.50
480;DHT22;226;48.606;9.096;2023-07-31T14:20:58;23.40;41.10
480;DHT22;226;48.606;9.096;2023-07-31T14:25:55;23.50;42.50
480;DHT22;226;48.606;9.096;2023-07-31T14:28:23;23.50;45.00
480;DHT22;226;48.606;9.096;2023-07-31T14:30:52;23.70;41.30
480;DHT22;226;48.606;9.096;2023-07-31T14:40:47;24.00;38.80
480;DHT22;226;48.606;9.096;2023-07-31T14:45:44;24.00;41.50
480;DHT22;226;48.606;9.096;2023-07-31T14:55:44;23.60;38.80
480;DHT22;226;48.606;9.096;2023-07-31T15:00:44;23.50;41.80
480;DHT22;226;48.606;9.096;2023-07-31T15:35:26;24.30;39.90
480;DHT22;226;48.606;9.096;2023-07-31T15:40:25;24.20;42.20
480;DHT22;226;48.606;9.096;2023-07-31T16:48:11;25.10;30.70
480;DHT22;226;48.606;9.096;2023-07-31T16:50:39;25.10;35.30
480;DHT22;226;48.606;9.096;2023-07-31T16:53:07;24.90;34.60
480;DHT22;226;48.606;9.096;2023-07-31T16:55:35;24.10;37.90
480;DHT22;226;48.606;9.096;2023-07-31T16:58:03;24.10;38.60
480;DHT22;226;48.606;9.096;2023-07-31T17:00:32;23.90;38.40
480;DHT22;226;48.606;9.096;2023-07-31T17:03:02;23.80;39.30
480;DHT22;226;48.606;9.096;2023-07-31T17:05:31;23.70;42.00
480;DHT22;226;48.606;9.096;2023-07-31T17:07:59;23.30;42.30
480;DHT22;226;48.606;9.096;2023-07-31T17:10:27;23.10;42.30
480;DHT22;226;48.606;9.096;2023-07-31T18:32:43;21.90;50.10
480;DHT22;226;48.606;9.096;2023-07-31T18:40:12;21.70;53.60
480;DHT22;226;48.606;9.096;2023-07-31T18:42:41;21.60;56.00
480;DHT22;226;48.606;9.096;2023-07-31T18:45:09;21.50;55.20
480;DHT22;226;48.606;9.096;2023-07-31T18:50:06;21.30;61.60
480;DHT22;226;48.606;9.096;2023-07-31T18:55:04;20.70;68.20
480;DHT22;226;48.606;9.096;2023-07-31T19:12:42;19.80;88.10
480;DHT22;226;48.606;9.096;2023-07-31T19:15:11;19.90;82.50
480;DHT22;226;48.606;9.096;2023-07-31T19:17:39;19.90;83.20
480;DHT22;226;48.606;9.096;2023-07-31T19:20:13;19.60;82.30
480;DHT22;226;48.606;9.096;2023-07-31T19:22:41;19.40;83.90
480;DHT22;226;48.606;9.096;2023-07-31T19:25:09;19.40;86.30
480;DHT22;226;48.606;9.096;2023-07-31T19:30:12;19.20;90.00
480;DHT22;226;48.606;9.096;2023-07-31T19:32:42;19.20;93.60
480;DHT22;226;48.606;9.096;2023-07-31T19:35:12;19.10;94.00
480;DHT22;226;48.606;9.096;2023-07-31T19:37:40;19.00;93.70
480;DHT22;226;48.606;9.096;2023-07-31T19:40:09;19.10;94.50
480;DHT22;226;48.606;9.096;2023-07-31T19:42:37;19.10;95.20
480;DHT22;226;48.606;9.096;2023-07-31T19:45:06;18.90;96.50
480;DHT22;226;48.606;9.096;2023-07-31T19:47:35;19.10;96.60
480;DHT22;226;48.606;9.096;2023-07-31T19:50:04;19.10;97.60
480;DHT22;226;48.606;9.096;2023-07-31T19:52:32;18.20;96.10
480;DHT22;226;48.606;9.096;2023-07-31T19:55:00;19.00;96.60
480;DHT22;226;48.606;9.096;2023-07-31T19:57:28;19.00;95.80
480;DHT22;226;48.606;9.096;2023-07-31T19:59:58;19.00;96.40
480;DHT22;226;48.606;9.096;2023-07-31T20:02:26;18.90;97.00
480;DHT22;226;48.606;9.096;2023-07-31T20:04:56;18.70;97.90
480;DHT22;226;48.606;9.096;2023-07-31T20:07:24;18.90;99.90
480;DHT22;226;48.606;9.096;2023-07-31T20:09:52;18.60;99.30
480;DHT22;226;48.606;9.096;2023-07-31T20:12:23;19.00;99.50
480;DHT22;226;48.606;9.096;2023-07-31T20:14:52;18.50;99.90
480;DHT22;226;48.606;9.096;2023-07-31T20:17:22;18.50;99.90
480;DHT22;226;48.606;9.096;2023-07-31T20:19:51;18.70;99.90
480;DHT22;226;48.606;9.096;2023-07-31T20:22:20;18.50;99.90
480;DHT22;226;48.606;9.096;2023-07-31T20:24:48;18.80;99.90
480;DHT22;226;48.606;9.096;2023-07-31T20:27:20;18.70;99.90
480;DHT22;226;48.606;9.096;2023-07-31T20:29:48;18.50;99.90
480;DHT22;226;48.606;9.096;2023-07-31T20:32:17;18.60;99.90
480;DHT22;226;48.606;9.096;2023-07-31T20:34:45;18.50;98.70
480;DHT22;226;48.606;9.096;2023-07-31T20:37:13;18.40;98.00
480;DHT22;226;48.606;9.096;2023-07-31T20:39:42;18.40;99.20
480;DHT22;226;48.606;9.096;2023-07-31T20:44:42;18.50;99.90
480;DHT22;226;48.606;9.096;2023-07-31T20:47:12;18.40;99.50
480;DHT22;226;48.606;9.096;2023-07-31T20:54:39;18.30;97.90
480;DHT22;226;48.606;9.096;2023-07-31T20:57:08;18.10;99.50
480;DHT22;226;48.606;9.096;2023-07-31T20:59:36;18.30;99.90
480;DHT22;226;48.606;9.096;2023-07-31T21:19:34;18.10;96.90
480;DHT22;226;48.606;9.096;2023-07-31T21:22:02;18.20;98.10
480;DHT22;226;48.606;9.096;2023-07-31T21:24:30;18.20;99.30
480;DHT22;226;48.606;9.096;2023-07-31T21:26:58;18.20;99.90
480;DHT22;226;48.606;9.096;2023-07-31T21:29:26;18.00;99.70
480;DHT22;226;48.606;9.096;2023-07-31T21:31:56;18.20;99.90
480;DHT22;226;48.606;9.096;2023-07-31T21:34:24;17.70;99.90
480;DHT22;226;48.606;9.096;2023-07-31T21:36:53;17.90;99.90
480;DHT22;226;48.606;9.096;2023-07-31T21:39:21;18.10;99.90
480;DHT22;226;48.606;9.096;2023-07-31T21:41:50;18.10;99.90
480;DHT22;226;48.606;9.096;2023-07-31T21:46:46;17.90;98.60
480;DHT22;226;48.606;9.096;2023-07-31T21:49:16;18.00;99.90
480;DHT22;226;48.606;9.096;2023-07-31T21:51:44;18.20;99.90
480;DHT22;226;48.606;9.096;2023-07-31T21:54:12;18.00;99.90
480;DHT22;226;48.606;9.096;2023-07-31T21:56:40;18.00;99.90
480;DHT22;226;48.606;9.096;2023-07-31T21:59:08;17.80;99.90
480;DHT22;226;48.606;9.096;2023-07-31T22:01:37;18.00;99.90
480;DHT22;226;48.606;9.096;2023-07-31T22:04:05;17.60;99.90
480;DHT22;226;48.606;9.096;2023-07-31T22:06:34;17.40;99.90
480;DHT22;226;48.606;9.096;2023-07-31T22:09:03;17.50;99.90
480;DHT22;226;48.606;9.096;2023-07-31T22:11:31;17.90;99.90
480;DHT22;226;48.606;9.096;2023-07-31T22:18:56;17.50;99.90
480;DHT22;226;48.606;9.096;2023-07-31T22:21:24;17.70;99.90
480;DHT22;226;48.606;9.096;2023-07-31T22:23:54;17.70;99.90
480;DHT22;226;48.606;9.096;2023-07-31T22:26:22;17.50;99.90
480;DHT22;226;48.606;9.096;2023-07-31T22:28:50;17.60;99.90
480;DHT22;226;48.606;9.096;2023-07-31T22:31:18;17.60;99.90
480;DHT22;226;48.606;9.096;2023-07-31T22:33:46;17.60;99.90
480;DHT22;226;48.606;9.096;2023-07-31T22:36:14;17.60;99.90
480;DHT22;226;48.606;9.096;2023-07-31T22:38:42;17.70;99.90
480;DHT22;226;48.606;9.096;2023-07-31T22:41:12;17.70;99.90
480;DHT22;226;48.606;9.096;2023-07-31T22:43:40;17.90;99.90
480;DHT22;226;48.606;9.096;2023-07-31T22:46:08;17.90;99.90
480;DHT22;226;48.606;9.096;2023-07-31T22:48:36;18.00;99.90
480;DHT22;226;48.606;9.096;2023-07-31T22:51:05;18.10;98.00
480;DHT22;226;48.606;9.096;2023-07-31T22:53:34;17.80;98.60
480;DHT22;226;48.606;9.096;2023-07-31T22:56:03;17.90;99.70
480;DHT22;226;48.606;9.096;2023-07-31T22:58:32;17.20;98.10
480;DHT22;226;48.606;9.096;2023-07-31T23:01:02;18.00;99.00
480;DHT22;226;48.606;9.096;2023-07-31T23:03:31;18.10;99.40
480;DHT22;226;48.606;9.096;2023-07-31T23:05:59;18.10;98.50
480;DHT22;226;48.606;9.096;2023-07-31T23:08:28;17.80;97.90
480;DHT22;226;48.606;9.096;2023-07-31T23:10:56;17.80;96.50
480;DHT22;226;48.606;9.096;2023-07-31T23:13:24;17.70;96.00
480;DHT22;226;48.606;9.096;2023-07-31T23:15:53;17.90;95.50
480;DHT22;226;48.606;9.096;2023-07-31T23:18:22;18.00;95.40
480;DHT22;226;48.606;9.096;2023-07-31T23:20:51;18.00;94.40
480;DHT22;226;48.606;9.096;2023-07-31T23:23:20;18.00;96.40
480;DHT22;226;48.606;9.096;2023-07-31T23:25:49;17.60;96.00
480;DHT22;226;48.606;9.096;2023-07-31T23:28:17;18.00;95.90
480;DHT22;226;48.606;9.096;2023-07-31T23:30:46;18.00;94.70
480;DHT22;226;48.606;9.096;2023-07-31T23:33:16;17.90;94.20
480;DHT22;226;48.606;9.096;2023-07-31T23:35:44;18.00;95.60
